createdAt,value
2022-12-20T00:01:22.956Z,26.73
2022-12-20T00:03:51.939Z,25.05
2022-12-20T00:06:18.954Z,24.88
2022-12-20T00:08:46.189Z,24.25
2022-12-20T00:11:12.997Z,22.33
2022-12-20T00:13:39.750Z,22.38
2022-12-20T00:16:13.451Z,24.08
2022-12-20T00:18:41.811Z,24.50
2022-12-20T00:21:11.431Z,23.08
2022-12-20T00:23:38.948Z,25.80
2022-12-20T00:26:08.621Z,22.42
2022-12-20T00:28:36.608Z,24.45
2022-12-20T00:31:04.686Z,24.58
2022-12-20T00:33:32.801Z,24.85
2022-12-20T00:35:59.439Z,28.63
2022-12-20T00:38:27.205Z,26.92
2022-12-20T00:41:08.492Z,25.50
2022-12-20T00:43:35.826Z,24.05
2022-12-20T00:46:02.909Z,23.67
2022-12-20T00:48:31.259Z,26.15
2022-12-20T00:51:03.784Z,22.70
2022-12-20T00:53:31.291Z,23.30
2022-12-20T00:55:58.227Z,20.63
2022-12-20T00:58:25.818Z,25.80
2022-12-20T01:00:56.514Z,24.95
2022-12-20T01:03:24.537Z,23.80
2022-12-20T01:05:59.433Z,24.42
2022-12-20T01:08:27.988Z,21.85
2022-12-20T01:11:08.653Z,24.27
2022-12-20T01:13:38.675Z,25.40
2022-12-20T01:16:27.270Z,28.10
2022-12-20T01:18:54.521Z,22.45
2022-12-20T01:21:23.966Z,24.55
2022-12-20T01:23:51.054Z,21.90
2022-12-20T01:26:19.682Z,22.42
2022-12-20T01:28:48.395Z,24.63
2022-12-20T01:31:17.846Z,24.17
2022-12-20T01:33:45.887Z,24.27
2022-12-20T01:36:16.686Z,23.90
2022-12-20T01:38:43.967Z,23.27
2022-12-20T01:41:18.962Z,24.67
2022-12-20T01:44:17.656Z,24.58
2022-12-20T01:46:46.556Z,24.95
2022-12-20T01:49:22.297Z,21.40
2022-12-20T01:51:53.923Z,28.77
2022-12-20T01:54:41.128Z,24.75
2022-12-20T01:57:14.509Z,23.67
2022-12-20T01:59:44.564Z,24.27
2022-12-20T02:02:13.714Z,22.92
2022-12-20T02:04:41.440Z,24.15
2022-12-20T02:07:10.384Z,27.27
2022-12-20T02:09:38.684Z,24.80
2022-12-20T02:12:15.538Z,23.73
2022-12-20T02:15:08.693Z,20.60
2022-12-20T02:18:09.496Z,23.00
2022-12-20T02:20:48.301Z,26.10
2022-12-20T02:23:26.387Z,27.98
2022-12-20T02:25:55.717Z,29.83
2022-12-20T02:28:32.786Z,23.83
2022-12-20T02:31:04.675Z,22.40
2022-12-20T02:33:31.388Z,21.48
2022-12-20T02:35:58.113Z,25.13
2022-12-20T02:38:34.324Z,29.20
2022-12-20T02:41:19.781Z,24.50
2022-12-20T02:44:09.918Z,22.27
2022-12-20T02:46:38.023Z,21.15
2022-12-20T02:49:11.404Z,25.80
2022-12-20T02:51:39.796Z,26.60
2022-12-20T02:54:06.467Z,22.73
2022-12-20T02:56:43.392Z,24.88
2022-12-20T02:59:21.822Z,25.92
2022-12-20T03:01:55.268Z,21.92
2022-12-20T03:04:29.187Z,22.95
2022-12-20T03:07:04.362Z,26.10
2022-12-20T03:09:33.025Z,25.90
2022-12-20T03:12:00.161Z,26.58
2022-12-20T03:14:27.117Z,26.17
2022-12-20T03:16:54.159Z,23.92
2022-12-20T03:19:21.407Z,26.65
2022-12-20T03:21:48.052Z,26.58
2022-12-20T03:24:15.040Z,24.92
2022-12-20T03:26:42.332Z,23.08
2022-12-20T03:29:09.511Z,24.73
2022-12-20T03:31:37.024Z,20.75
2022-12-20T03:34:04.476Z,26.27
2022-12-20T03:36:31.394Z,24.98
2022-12-20T03:38:58.145Z,28.58
2022-12-20T03:41:25.883Z,22.45
2022-12-20T03:43:52.768Z,25.33
2022-12-20T03:46:19.575Z,24.95
2022-12-20T03:48:46.214Z,26.05
2022-12-20T03:51:12.804Z,23.92
2022-12-20T03:53:39.514Z,23.52
2022-12-20T03:56:06.489Z,22.63
2022-12-20T03:58:33.180Z,24.40
2022-12-20T04:00:59.823Z,22.33
2022-12-20T04:03:26.670Z,26.00
2022-12-20T04:05:53.371Z,22.45
2022-12-20T04:08:20.011Z,23.77
2022-12-20T04:11:12.622Z,26.25
2022-12-20T04:13:39.215Z,23.27
2022-12-20T04:16:06.023Z,27.38
2022-12-20T04:18:32.673Z,24.30
2022-12-20T04:21:01.270Z,26.05
2022-12-20T04:23:27.887Z,19.63
2022-12-20T04:25:54.599Z,24.73
2022-12-20T04:28:21.277Z,20.48
2022-12-20T04:30:47.943Z,23.67
2022-12-20T04:33:14.575Z,25.02
2022-12-20T04:35:41.270Z,23.63
2022-12-20T04:38:07.943Z,25.67
2022-12-20T04:40:34.619Z,20.83
2022-12-20T04:43:01.335Z,24.10
2022-12-20T04:45:28.034Z,24.00
2022-12-20T04:47:54.648Z,24.85
2022-12-20T04:50:21.349Z,23.35
2022-12-20T04:53:06.707Z,18.73
2022-12-20T04:58:07.638Z,22.90
2022-12-20T05:00:34.826Z,21.23
2022-12-20T05:03:01.794Z,21.25
2022-12-20T05:05:28.989Z,22.10
2022-12-20T05:07:55.769Z,22.40
2022-12-20T05:10:22.743Z,25.70
2022-12-20T05:12:49.386Z,20.40
2022-12-20T05:15:16.065Z,20.30
2022-12-20T05:17:42.716Z,22.30
2022-12-20T05:20:10.605Z,18.88
2022-12-20T05:22:55.793Z,21.35
2022-12-20T05:25:41.115Z,20.52
2022-12-20T05:30:34.798Z,22.65
2022-12-20T05:33:01.461Z,23.23
2022-12-20T05:35:28.168Z,20.38
2022-12-20T05:37:55.075Z,18.50
2022-12-20T05:40:22.360Z,19.00
2022-12-20T05:42:48.955Z,20.45
2022-12-20T05:45:15.692Z,23.35
2022-12-20T05:47:42.369Z,19.05
2022-12-20T05:50:12.254Z,21.23
2022-12-20T05:52:43.469Z,22.50
2022-12-20T05:55:10.463Z,20.85
2022-12-20T05:57:37.208Z,24.35
2022-12-20T06:00:05.715Z,21.65
2022-12-20T06:02:32.521Z,20.58
2022-12-20T06:04:59.723Z,21.90
2022-12-20T06:07:28.935Z,22.00
2022-12-20T06:09:56.509Z,22.35
2022-12-20T06:12:23.534Z,19.88
2022-12-20T06:14:50.711Z,20.38
2022-12-20T06:17:17.549Z,19.70
2022-12-20T06:19:44.212Z,21.45
2022-12-20T06:22:10.954Z,23.70
2022-12-20T06:24:44.339Z,25.10
2022-12-20T06:27:12.762Z,21.90
2022-12-20T06:29:39.480Z,17.85
2022-12-20T06:32:06.285Z,19.45
2022-12-20T06:34:33.188Z,18.65
2022-12-20T06:36:59.847Z,17.00
2022-12-20T06:39:26.605Z,18.15
2022-12-20T06:41:53.211Z,17.73
2022-12-20T06:44:19.893Z,19.38
2022-12-20T06:46:46.556Z,17.10
2022-12-20T06:49:13.244Z,16.83
2022-12-20T06:51:39.904Z,15.02
2022-12-20T06:54:06.508Z,19.30
2022-12-20T06:56:39.244Z,18.55
2022-12-20T06:59:07.793Z,16.95
2022-12-20T07:01:34.568Z,15.95
2022-12-20T07:04:01.297Z,18.20
2022-12-20T07:06:29.315Z,17.10
2022-12-20T07:08:56.258Z,15.38
2022-12-20T07:11:23.022Z,20.73
2022-12-20T07:13:50.319Z,16.77
2022-12-20T07:16:17.048Z,15.93
2022-12-20T07:18:43.745Z,18.52
2022-12-20T07:21:10.402Z,15.10
2022-12-20T07:23:37.096Z,17.73
2022-12-20T07:26:04.178Z,18.90
2022-12-20T07:28:30.929Z,16.02
2022-12-20T07:31:01.690Z,17.02
2022-12-20T07:33:28.807Z,17.70
2022-12-20T07:36:07.144Z,14.63
2022-12-20T07:38:35.517Z,14.60
2022-12-20T07:41:08.174Z,14.93
2022-12-20T07:46:02.468Z,14.35
2022-12-20T07:48:29.221Z,15.60
2022-12-20T07:51:05.781Z,12.75
2022-12-20T07:53:36.985Z,17.48
2022-12-20T07:56:07.210Z,17.77
2022-12-20T07:58:35.309Z,15.77
2022-12-20T08:01:02.683Z,14.35
2022-12-20T08:03:36.704Z,12.68
2022-12-20T08:06:06.335Z,17.10
2022-12-20T08:08:35.957Z,13.70
2022-12-20T08:11:04.394Z,14.38
2022-12-20T08:13:32.967Z,14.30
2022-12-20T08:16:00.504Z,14.93
2022-12-20T08:18:27.192Z,12.88
2022-12-20T08:20:53.900Z,18.65
2022-12-20T08:23:20.497Z,15.90
2022-12-20T08:25:47.153Z,16.90
2022-12-20T08:28:13.817Z,17.63
2022-12-20T08:30:40.582Z,12.98
2022-12-20T08:33:07.317Z,15.93
2022-12-20T08:35:34.404Z,13.90
2022-12-20T08:38:01.192Z,14.77
2022-12-20T08:40:27.781Z,62.63
2022-12-20T08:42:54.689Z,24.00
2022-12-20T08:45:21.375Z,27.70
2022-12-20T08:47:48.025Z,19.98
2022-12-20T08:50:14.742Z,16.52
2022-12-20T08:52:41.401Z,15.25
2022-12-20T08:55:08.465Z,16.60
2022-12-20T08:57:35.281Z,16.30
2022-12-20T09:00:02.866Z,17.13
2022-12-20T09:02:29.677Z,15.63
2022-12-20T09:04:56.784Z,14.55
2022-12-20T09:07:23.425Z,18.25
2022-12-20T09:09:50.059Z,14.95
2022-12-20T09:12:16.734Z,14.07
2022-12-20T09:14:43.531Z,16.02
2022-12-20T09:17:10.146Z,13.40
2022-12-20T09:19:36.773Z,15.55
2022-12-20T09:22:04.237Z,12.50
2022-12-20T09:24:31.419Z,17.77
2022-12-20T09:26:58.038Z,13.68
2022-12-20T09:29:29.501Z,15.65
2022-12-20T09:32:01.308Z,14.55
2022-12-20T09:34:27.936Z,14.23
2022-12-20T09:36:55.104Z,14.63
2022-12-20T09:39:21.728Z,14.18
2022-12-20T09:41:48.841Z,11.25
2022-12-20T09:44:21.647Z,13.27
2022-12-20T09:46:56.900Z,14.68
2022-12-20T09:49:29.446Z,10.70
2022-12-20T09:54:55.983Z,10.07
2022-12-20T09:57:40.125Z,11.18
2022-12-20T10:00:18.677Z,11.18
2022-12-20T10:03:09.281Z,11.23
2022-12-20T10:05:48.409Z,12.48
2022-12-20T10:08:23.654Z,11.07
2022-12-20T10:10:59.520Z,11.13
2022-12-20T10:13:47.426Z,9.88
2022-12-20T10:16:28.710Z,10.57
2022-12-20T10:19:14.293Z,10.57
2022-12-20T10:21:57.862Z,9.65
2022-12-20T10:24:30.402Z,11.60
2022-12-20T10:27:02.914Z,11.98
2022-12-20T10:32:00.557Z,11.35
2022-12-20T10:34:33.329Z,12.00
2022-12-20T10:37:14.566Z,9.88
2022-12-20T10:39:51.946Z,13.93
2022-12-20T10:42:27.692Z,11.85
2022-12-20T10:44:55.894Z,12.00
2022-12-20T10:47:28.158Z,10.63
2022-12-20T10:50:15.741Z,9.57
2022-12-20T10:52:44.122Z,10.05
2022-12-20T10:55:41.166Z,10.75
2022-12-20T10:58:27.912Z,11.18
2022-12-20T11:01:12.677Z,11.40
2022-12-20T11:03:58.074Z,11.88
2022-12-20T11:06:29.154Z,9.68
2022-12-20T11:09:31.313Z,9.15
2022-12-20T11:12:12.631Z,10.32
2022-12-20T11:14:40.300Z,11.30
2022-12-20T11:17:35.978Z,9.90
2022-12-20T11:20:43.247Z,9.93
2022-12-20T11:23:18.450Z,11.77
2022-12-20T11:26:15.314Z,9.85
2022-12-20T11:29:29.637Z,9.57
2022-12-20T11:32:22.118Z,9.93
2022-12-20T11:35:11.400Z,8.90
2022-12-20T11:38:09.258Z,9.48
2022-12-20T11:40:47.963Z,8.10
2022-12-20T11:43:39.055Z,10.27
2022-12-20T11:47:01.303Z,9.75
2022-12-20T11:49:42.349Z,9.82
2022-12-20T11:52:26.780Z,8.13
2022-12-20T11:55:14.638Z,11.82
2022-12-20T11:58:17.340Z,8.32
2022-12-20T12:00:41.603Z,9.57
2022-12-20T12:03:18.942Z,10.52
2022-12-20T12:05:56.460Z,9.77
2022-12-20T12:08:31.302Z,8.68
2022-12-20T12:11:56.186Z,8.98
2022-12-20T12:14:16.584Z,8.68
2022-12-20T12:16:47.718Z,7.82
2022-12-20T12:19:15.709Z,10.45
2022-12-20T12:21:59.325Z,9.18
2022-12-20T12:24:39.390Z,9.43
2022-12-20T12:27:16.208Z,7.80
2022-12-20T12:29:43.583Z,10.82
2022-12-20T12:32:37.901Z,8.75
2022-12-20T12:35:44.067Z,9.40
2022-12-20T12:38:35.316Z,9.65
2022-12-20T12:41:39.728Z,7.75
2022-12-20T12:44:18.588Z,10.55
2022-12-20T12:49:21.441Z,8.23
2022-12-20T12:51:55.783Z,8.93
2022-12-20T12:54:37.514Z,9.93
2022-12-20T12:57:12.818Z,6.78
2022-12-20T12:59:39.622Z,7.30
2022-12-20T13:02:16.230Z,9.30
2022-12-20T13:04:59.602Z,10.50
2022-12-20T13:07:43.317Z,6.53
2022-12-20T13:10:09.988Z,8.40
2022-12-20T13:12:36.649Z,9.90
2022-12-20T13:15:23.340Z,8.85
2022-12-20T13:17:54.390Z,7.22
2022-12-20T13:20:26.057Z,7.93
2022-12-20T13:23:11.721Z,7.15
2022-12-20T13:25:48.251Z,11.70
2022-12-20T13:28:24.093Z,9.52
2022-12-20T13:30:54.436Z,8.65
2022-12-20T13:33:24.384Z,7.13
2022-12-20T13:36:15.735Z,8.90
2022-12-20T13:38:52.099Z,7.80
2022-12-20T13:41:36.739Z,7.88
2022-12-20T13:44:11.486Z,10.38
2022-12-20T13:47:10.183Z,8.32
2022-12-20T13:49:41.049Z,7.13
2022-12-20T13:52:11.424Z,8.70
2022-12-20T13:54:50.491Z,9.15
2022-12-20T13:57:43.286Z,7.45
2022-12-20T14:00:25.810Z,8.18
2022-12-20T14:02:54.146Z,8.85
2022-12-20T14:05:26.666Z,9.40
2022-12-20T14:10:29.390Z,11.38
2022-12-20T14:12:57.774Z,8.25
2022-12-20T14:15:33.265Z,9.13
2022-12-20T14:18:26.610Z,8.00
2022-12-20T14:21:01.757Z,9.40
2022-12-20T14:23:38.039Z,6.63
2022-12-20T14:26:05.122Z,10.20
2022-12-20T14:28:39.254Z,7.53
2022-12-20T14:31:22.049Z,9.38
2022-12-20T14:33:50.542Z,8.25
2022-12-20T14:36:17.159Z,7.30
2022-12-20T14:38:51.523Z,9.00
2022-12-20T14:41:31.965Z,9.57
2022-12-20T14:44:07.110Z,8.27
2022-12-20T14:46:35.873Z,11.27
2022-12-20T14:49:23.536Z,8.70
2022-12-20T14:51:51.090Z,10.57
2022-12-20T14:54:56.734Z,7.20
2022-12-20T14:57:20.046Z,9.18
2022-12-20T15:00:02.080Z,7.35
2022-12-20T15:02:43.880Z,10.05
2022-12-20T15:05:36.056Z,8.70
2022-12-20T15:08:12.192Z,7.32
2022-12-20T15:10:39.306Z,6.97
2022-12-20T15:13:12.436Z,8.20
2022-12-20T15:15:39.638Z,7.53
2022-12-20T15:18:15.470Z,7.78
2022-12-20T15:20:44.458Z,8.88
2022-12-20T15:23:19.642Z,9.52
2022-12-20T15:25:47.437Z,7.47
2022-12-20T15:28:20.301Z,8.77
2022-12-20T15:30:49.020Z,10.00
2022-12-20T15:33:18.871Z,9.25
2022-12-20T15:35:46.501Z,8.15
2022-12-20T15:38:25.480Z,7.20
2022-12-20T15:41:05.771Z,8.25
2022-12-20T15:43:39.072Z,9.75
2022-12-20T15:46:06.064Z,9.13
2022-12-20T15:48:32.759Z,9.25
2022-12-20T15:50:59.536Z,8.98
2022-12-20T15:53:30.993Z,9.05
2022-12-20T15:55:57.759Z,9.30
2022-12-20T15:58:25.507Z,6.38
2022-12-20T16:00:55.679Z,9.27
2022-12-20T16:03:25.408Z,10.48
2022-12-20T16:05:52.321Z,10.88
2022-12-20T16:08:19.105Z,10.15
2022-12-20T16:10:47.536Z,8.95
2022-12-20T16:13:22.370Z,8.55
2022-12-20T16:15:49.121Z,7.80
2022-12-20T16:18:16.317Z,8.85
2022-12-20T16:20:43.697Z,8.77
2022-12-20T16:23:24.434Z,10.25
2022-12-20T16:25:51.501Z,10.00
2022-12-20T16:28:18.573Z,9.60
2022-12-20T16:30:52.714Z,7.80
2022-12-20T16:33:21.354Z,8.38
2022-12-20T16:35:48.505Z,8.75
2022-12-20T16:38:15.300Z,9.82
2022-12-20T16:40:42.127Z,10.68
2022-12-20T16:43:15.452Z,10.20
2022-12-20T16:45:42.230Z,11.75
2022-12-20T16:48:08.893Z,9.38
2022-12-20T16:50:41.616Z,11.10
2022-12-20T16:53:12.865Z,10.57
2022-12-20T16:55:40.200Z,13.55
2022-12-20T16:58:07.237Z,8.75
2022-12-20T17:00:34.192Z,10.95
2022-12-20T17:03:01.143Z,12.48
2022-12-20T17:05:31.885Z,10.50
2022-12-20T17:07:58.639Z,11.45
2022-12-20T17:10:27.113Z,11.63
2022-12-20T17:12:54.430Z,12.00
2022-12-20T17:15:28.025Z,15.40
2022-12-20T17:17:55.460Z,9.98
2022-12-20T17:20:24.698Z,9.88
2022-12-20T17:25:38.198Z,10.70
2022-12-20T17:28:06.194Z,9.43
2022-12-20T17:30:32.891Z,9.15
2022-12-20T17:32:59.522Z,9.90
2022-12-20T17:35:30.563Z,11.52
2022-12-20T17:37:57.924Z,10.93
2022-12-20T17:40:27.309Z,11.25
2022-12-20T17:42:54.610Z,10.35
2022-12-20T17:45:26.366Z,8.82
2022-12-20T17:47:54.218Z,10.65
2022-12-20T17:50:21.804Z,10.90
2022-12-20T17:52:48.864Z,13.07
2022-12-20T17:55:27.143Z,10.73
2022-12-20T17:57:55.268Z,10.68
2022-12-20T18:00:34.746Z,11.77
2022-12-20T18:03:05.236Z,11.50
2022-12-20T18:05:32.032Z,11.93
2022-12-20T18:07:58.678Z,12.98
2022-12-20T18:10:25.383Z,11.10
2022-12-20T18:12:52.130Z,10.48
2022-12-20T18:15:20.232Z,9.90
2022-12-20T18:17:47.116Z,11.10
2022-12-20T18:20:14.630Z,10.20
2022-12-20T18:22:41.403Z,11.80
2022-12-20T18:25:08.741Z,12.30
2022-12-20T18:27:40.690Z,11.80
2022-12-20T18:30:10.654Z,10.70
2022-12-20T18:32:39.970Z,11.88
2022-12-20T18:35:07.766Z,11.45
2022-12-20T18:37:34.356Z,11.05
2022-12-20T18:40:03.996Z,10.38
2022-12-20T18:42:30.721Z,10.70
2022-12-20T18:44:57.396Z,8.65
2022-12-20T18:47:24.431Z,10.35
2022-12-20T18:49:51.470Z,10.32
2022-12-20T18:52:18.103Z,10.02
2022-12-20T18:54:44.890Z,11.45
2022-12-20T18:57:11.594Z,11.65
2022-12-20T18:59:38.248Z,9.55
2022-12-20T19:02:05.001Z,12.68
2022-12-20T19:04:31.702Z,9.25
2022-12-20T19:06:58.373Z,10.05
2022-12-20T19:09:25.129Z,11.07
2022-12-20T19:11:56.989Z,10.80
2022-12-20T19:14:24.409Z,10.73
2022-12-20T19:16:51.839Z,10.68
2022-12-20T19:19:18.664Z,10.93
2022-12-20T19:21:45.393Z,12.00
2022-12-20T19:24:12.310Z,9.90
2022-12-20T19:26:39.663Z,11.85
2022-12-20T19:29:06.782Z,11.13
2022-12-20T19:31:36.342Z,11.27
2022-12-20T19:34:06.640Z,11.23
2022-12-20T19:36:42.035Z,10.20
2022-12-20T19:39:14.532Z,11.00
2022-12-20T19:44:08.799Z,10.52
2022-12-20T19:46:35.753Z,11.45
2022-12-20T19:49:02.439Z,9.30
2022-12-20T19:51:29.569Z,11.73
2022-12-20T19:53:58.146Z,13.40
2022-12-20T19:56:27.330Z,11.27
2022-12-20T19:58:55.342Z,9.60
2022-12-20T20:01:27.085Z,11.35
2022-12-20T20:03:56.145Z,10.90
2022-12-20T20:06:23.524Z,11.77
2022-12-20T20:08:50.461Z,12.20
2022-12-20T20:11:19.441Z,9.60
2022-12-20T20:13:46.397Z,10.93
2022-12-20T20:16:16.873Z,9.88
2022-12-20T20:18:47.157Z,10.57
2022-12-20T20:21:21.367Z,11.60
2022-12-20T20:23:50.156Z,11.25
2022-12-20T20:26:20.381Z,13.63
2022-12-20T20:28:48.081Z,11.25
2022-12-20T20:31:16.946Z,10.10
2022-12-20T20:33:44.125Z,11.73
2022-12-20T20:36:14.815Z,11.02
2022-12-20T20:38:41.667Z,11.95
2022-12-20T20:41:09.280Z,10.25
2022-12-20T20:43:39.384Z,11.88
2022-12-20T20:46:09.711Z,12.80
2022-12-20T20:48:37.346Z,12.93
2022-12-20T20:51:05.529Z,10.23
2022-12-20T20:53:34.113Z,11.43
2022-12-20T20:56:02.375Z,11.15
2022-12-20T20:58:29.852Z,11.82
2022-12-20T21:00:58.806Z,9.50
2022-12-20T21:03:27.317Z,11.60
2022-12-20T21:08:41.405Z,11.50
2022-12-20T21:11:09.181Z,10.13
2022-12-20T21:13:35.959Z,11.30
2022-12-20T21:16:16.130Z,12.32
2022-12-20T21:18:43.263Z,14.15
2022-12-20T21:21:11.669Z,11.02
2022-12-20T21:23:39.727Z,13.13
2022-12-20T21:26:07.517Z,12.27
2022-12-20T21:28:34.470Z,12.82
2022-12-20T21:31:02.366Z,13.00
2022-12-20T21:33:29.587Z,12.82
2022-12-20T21:36:07.730Z,12.95
2022-12-20T21:38:34.922Z,16.02
2022-12-20T21:41:06.963Z,12.77
2022-12-20T21:43:33.973Z,13.07
2022-12-20T21:46:01.073Z,14.23
2022-12-20T21:48:29.665Z,14.80
2022-12-20T21:51:06.404Z,13.13
2022-12-20T21:53:33.300Z,13.07
2022-12-20T21:56:00.854Z,12.57
2022-12-20T21:58:29.680Z,12.95
2022-12-20T22:00:57.090Z,14.05
2022-12-20T22:03:24.996Z,15.02
2022-12-20T22:05:55.576Z,12.55
2022-12-20T22:08:23.627Z,14.45
2022-12-20T22:11:09.497Z,13.77
2022-12-20T22:13:41.053Z,15.10
2022-12-20T22:16:17.003Z,14.93
2022-12-20T22:18:47.781Z,14.68
2022-12-20T22:21:15.442Z,14.23
2022-12-20T22:23:42.595Z,15.50
2022-12-20T22:26:12.044Z,15.00
2022-12-20T22:28:40.138Z,15.93
2022-12-20T22:31:08.734Z,17.75
2022-12-20T22:33:36.164Z,16.05
2022-12-20T22:36:03.369Z,16.02
2022-12-20T22:38:30.072Z,15.88
2022-12-20T22:41:13.575Z,18.40
2022-12-20T22:43:41.333Z,14.68
2022-12-20T22:46:10.472Z,16.98
2022-12-20T22:48:38.223Z,20.30
2022-12-20T22:51:21.856Z,17.55
2022-12-20T22:53:49.201Z,16.70
2022-12-20T22:56:17.793Z,18.17
2022-12-20T22:58:44.677Z,21.30
2022-12-20T23:01:15.298Z,19.50
2022-12-20T23:03:42.548Z,17.58
2022-12-20T23:06:12.934Z,20.23
2022-12-20T23:08:39.883Z,17.27
2022-12-20T23:11:37.818Z,18.30
2022-12-20T23:14:23.654Z,21.95
2022-12-20T23:16:50.641Z,19.05
2022-12-20T23:19:17.448Z,19.45
2022-12-20T23:22:02.837Z,20.45
2022-12-20T23:24:29.484Z,20.48
2022-12-20T23:26:56.401Z,21.52
2022-12-20T23:29:23.432Z,20.05
2022-12-20T23:31:50.213Z,25.05
2022-12-20T23:34:16.903Z,20.23
2022-12-20T23:36:43.612Z,20.52
2022-12-20T23:39:10.274Z,22.33
2022-12-20T23:41:36.905Z,25.35
2022-12-20T23:44:05.099Z,23.40
2022-12-20T23:46:31.864Z,19.95
2022-12-20T23:48:58.585Z,22.52
2022-12-20T23:51:25.159Z,21.48
2022-12-20T23:53:52.730Z,21.55
2022-12-20T23:56:21.628Z,21.50
2022-12-20T23:58:55.110Z,21.50
